Time;durP1;ratioP1;P1;durP2;ratioP2;P2;SDS_P1;SDS_P2;PMS_P1;PMS_P2;Temp;Humidity;BMP_temperature;BMP_pressure;BME280_temperature;BME280_humidity;BME280_pressure;Samples;Min_cycle;Max_cycle;Signal;HPM_P1;HPM_P2
2023/02/23 00:00:43;;;;;;;60.85;33.28;;;;;;;-146.25;100.00;52455.38;2071054;28;35470;-77
2023/02/23 00:01:45;;;;;;;61.78;33.60;;;;;;;-146.25;100.00;52435.09;2071482;28;33047;-77
2023/02/23 00:02:48;;;;;;;60.20;33.22;;;;;;;-146.25;100.00;52455.38;2070947;28;38966;-77
2023/02/23 00:03:53;;;;;;;50.55;30.45;;;;;;;-146.25;100.00;52475.66;2071634;28;20077;-77
2023/02/23 00:04:56;;;;;;;63.00;34.38;;;;;;;-146.25;100.00;52443.22;2071514;28;34333;-77
2023/02/23 00:06:02;;;;;;;64.30;36.15;;;;;;;-146.25;100.00;52455.38;2071852;28;34759;-77
2023/02/23 00:07:07;;;;;;;63.38;34.05;;;;;;;-146.25;100.00;52455.38;2070797;28;37404;-77
2023/02/23 00:08:09;;;;;;;70.68;36.45;;;;;;;-146.25;100.00;52445.25;2070946;28;34694;-77
2023/02/23 00:09:21;;;;;;;61.75;33.45;;;;;;;-146.25;100.00;52473.63;2070301;28;39164;-77
2023/02/23 00:10:29;;;;;;;60.08;32.13;;;;;;;-146.25;100.00;52465.53;2071031;28;33345;-77
2023/02/23 00:11:32;;;;;;;61.85;33.72;;;;;;;-146.25;100.00;52416.84;2070880;28;34574;-77
2023/02/23 00:12:35;;;;;;;67.05;35.40;;;;;;;-146.25;100.00;52457.41;2071404;28;21834;-77
2023/02/23 00:13:37;;;;;;;71.97;38.22;;;;;;;-146.25;100.00;52447.28;2070419;28;37923;-77
2023/02/23 00:14:39;;;;;;;67.32;36.30;;;;;;;-146.25;100.00;52441.19;2071364;28;34616;-77
2023/02/23 00:15:41;;;;;;;66.30;35.58;;;;;;;-146.25;100.00;52455.38;2071434;28;36133;-77
2023/02/23 00:16:44;;;;;;;72.47;35.92;;;;;;;-146.25;100.00;52437.13;2072427;28;20035;-77
2023/02/23 00:17:46;;;;;;;66.10;37.80;;;;;;;-146.25;100.00;52437.13;2071118;28;34117;-76
2023/02/23 00:18:55;;;;;;;73.43;38.05;;;;;;;-146.25;100.00;52453.34;2077551;28;39630;-77
2023/02/23 00:19:57;;;;;;;65.20;35.92;;;;;;;-146.25;100.00;52465.53;2072111;28;20918;-77
2023/02/23 00:20:59;;;;;;;68.82;36.55;;;;;;;-146.25;100.00;52449.31;2062768;28;37935;-76
2023/02/23 00:22:00;;;;;;;71.97;39.28;;;;;;;-146.25;100.00;52463.50;2062501;28;32174;-77
2023/02/23 00:23:03;;;;;;;72.60;37.55;;;;;;;-146.25;100.00;52457.41;2071803;28;35257;-77
2023/02/23 00:24:11;;;;;;;63.08;35.05;;;;;;;-146.25;100.00;52461.47;2072151;28;20043;-76
2023/02/23 00:25:14;;;;;;;68.93;36.42;;;;;;;-146.25;100.00;52402.66;2071222;28;36899;-77
2023/02/23 00:26:19;;;;;;;70.03;37.10;;;;;;;-146.25;100.00;52481.75;2070563;28;36384;-77
2023/02/23 00:27:21;;;;;;;66.35;36.17;;;;;;;-146.25;100.00;52457.41;2071727;28;20915;-77
2023/02/23 00:28:23;;;;;;;72.45;37.03;;;;;;;-146.25;100.00;52441.19;2070794;28;31269;-77
2023/02/23 00:29:24;;;;;;;63.83;35.42;;;;;;;-146.25;100.00;52418.88;2071361;28;28491;-77
2023/02/23 00:30:28;;;;;;;70.35;37.08;;;;;;;-146.25;100.00;52443.22;2071442;28;20050;-77
2023/02/23 00:31:32;;;;;;;70.07;37.70;;;;;;;-146.25;100.00;52457.41;2070703;28;29815;-77
2023/02/23 00:32:35;;;;;;;72.65;36.10;;;;;;;-146.25;100.00;52420.91;2062390;28;27685;-77
2023/02/23 00:33:38;;;;;;;70.13;35.92;;;;;;;-146.25;100.00;52433.06;2063308;28;28331;-77
2023/02/23 00:34:41;;;;;;;70.13;37.60;;;;;;;-146.25;100.00;52439.16;2071987;28;20165;-77
2023/02/23 00:35:43;;;;;;;74.18;37.15;;;;;;;-146.25;100.00;52479.72;2062879;28;33712;-77
2023/02/23 00:36:45;;;;;;;78.20;37.42;;;;;;;-146.25;100.00;52443.22;2062609;28;32490;-77
2023/02/23 00:37:48;;;;;;;72.72;37.40;;;;;;;-146.25;100.00;52461.47;2063121;28;29075;-77
2023/02/23 00:38:59;;;;;;;61.97;33.92;;;;;;;-146.25;100.00;52453.34;2063404;28;20132;-77
2023/02/23 00:40:00;;;;;;;67.53;34.20;;;;;;;-146.25;100.00;52441.19;2071372;28;29578;-77
2023/02/23 00:41:09;;;;;;;70.35;36.47;;;;;;;-146.25;100.00;52469.56;2071328;28;20049;-77
2023/02/23 00:42:13;;;;;;;71.70;38.53;;;;;;;-146.25;100.00;52465.53;2072654;28;20043;-77
2023/02/23 00:43:17;;;;;;;63.67;33.90;;;;;;;-146.25;100.00;52461.47;2071806;28;24512;-77
2023/02/23 00:44:23;;;;;;;73.82;36.65;;;;;;;-146.25;100.00;52469.56;2071669;28;20923;-77
2023/02/23 00:45:25;;;;;;;63.22;33.22;;;;;;;-146.25;100.00;52461.47;2071763;28;29342;-77
2023/02/23 00:46:29;;;;;;;62.90;33.92;;;;;;;-146.25;100.00;52461.47;2071691;28;27405;-77
2023/02/23 00:47:31;;;;;;;71.05;36.22;;;;;;;-146.25;100.00;52453.34;2071987;28;23525;-77
2023/02/23 00:48:34;;;;;;;64.97;34.45;;;;;;;-146.25;100.00;52457.41;2071435;28;30344;-77
2023/02/23 00:49:36;;;;;;;67.45;34.38;;;;;;;-146.25;100.00;52453.34;2071733;28;27423;-77
2023/02/23 00:50:37;;;;;;;72.43;37.30;;;;;;;-146.25;100.00;52469.56;2071710;28;25750;-77
2023/02/23 00:51:40;;;;;;;74.05;37.58;;;;;;;-146.25;100.00;52475.66;2071424;28;36236;-76
2023/02/23 00:52:43;;;;;;;69.43;35.83;;;;;;;-146.25;100.00;52465.53;2062768;28;28488;-77
2023/02/23 00:53:44;;;;;;;63.60;34.17;;;;;;;-146.25;100.00;52481.75;2062868;28;31754;-77
2023/02/23 00:54:46;;;;;;;65.93;35.00;;;;;;;-146.25;100.00;52483.78;2062787;28;20050;-77
2023/02/23 00:55:48;;;;;;;65.00;34.55;;;;;;;-146.25;100.00;52475.66;2063310;28;20055;-77
2023/02/23 00:56:50;;;;;;;68.35;36.58;;;;;;;-146.25;100.00;52441.19;2071157;28;31727;-77
2023/02/23 00:57:54;;;;;;;69.40;34.92;;;;;;;-146.25;100.00;52463.50;2071795;28;30538;-77
2023/02/23 00:58:56;;;;;;;71.25;36.40;;;;;;;-146.25;100.00;52437.13;2071391;28;20053;-77
2023/02/23 01:00:00;;;;;;;77.05;38.15;;;;;;;-146.25;100.00;52447.28;2072087;28;20034;-77
2023/02/23 01:01:09;;;;;;;74.13;36.65;;;;;;;-146.25;100.00;52465.53;2071933;28;20051;-77
2023/02/23 01:02:11;;;;;;;67.53;36.47;;;;;;;-146.25;100.00;52451.31;2071983;28;20821;-77
2023/02/23 01:03:12;;;;;;;68.68;36.22;;;;;;;-146.25;100.00;52459.44;2071406;28;31265;-77
2023/02/23 01:04:15;;;;;;;71.47;36.13;;;;;;;-146.25;100.00;52455.38;2070779;28;32673;-76
2023/02/23 01:05:17;;;;;;;73.47;36.97;;;;;;;-146.25;100.00;52445.25;2071417;28;29125;-77
2023/02/23 01:06:22;;;;;;;71.57;36.25;;;;;;;-146.25;100.00;52455.38;2071950;28;20022;-77
2023/02/23 01:07:24;;;;;;;70.63;36.45;;;;;;;-146.25;100.00;52467.56;2070865;28;20038;-77
2023/02/23 01:08:29;;;;;;;72.10;37.88;;;;;;;-146.25;100.00;52429.03;2071336;28;20876;-77
2023/02/23 01:09:31;;;;;;;65.47;35.72;;;;;;;-146.25;100.00;52493.91;2070603;28;29727;-77
2023/02/23 01:10:32;;;;;;;70.68;35.80;;;;;;;-146.25;100.00;52429.03;2071788;28;20046;-77
2023/02/23 01:11:36;;;;;;;66.22;35.88;;;;;;;-146.25;100.00;52437.13;2072039;28;27155;-77
2023/02/23 01:12:38;;;;;;;65.05;33.58;;;;;;;-146.25;100.00;52463.50;2071560;28;28083;-77
2023/02/23 01:13:46;;;;;;;67.95;35.58;;;;;;;-146.25;100.00;52443.22;2071058;28;20141;-77
2023/02/23 01:14:47;;;;;;;72.55;36.65;;;;;;;-146.25;100.00;52455.38;2070433;28;33134;-77
2023/02/23 01:15:51;;;;;;;69.53;34.85;;;;;;;-146.25;100.00;52445.25;2070650;28;34741;-77
2023/02/23 01:16:53;;;;;;;68.63;35.50;;;;;;;-146.25;100.00;52429.03;2071989;28;25639;-77
2023/02/23 01:17:55;;;;;;;61.28;34.30;;;;;;;-146.25;100.00;52441.19;2070292;28;26894;-77
2023/02/23 01:19:01;;;;;;;71.65;36.83;;;;;;;-146.25;100.00;52447.28;2071746;28;20907;-77
2023/02/23 01:20:14;;;;;;;71.82;37.50;;;;;;;-146.25;100.00;52473.63;2070636;28;23756;-77
2023/02/23 01:21:23;;;;;;;69.60;35.70;;;;;;;-146.25;100.00;52461.47;2070646;28;28672;-77
2023/02/23 01:22:25;;;;;;;78.00;38.25;;;;;;;-146.25;100.00;52465.53;2071707;28;24905;-77
2023/02/23 01:23:29;;;;;;;73.28;35.83;;;;;;;-146.25;100.00;52457.41;2071444;28;31888;-77
2023/02/23 01:24:30;;;;;;;67.93;34.67;;;;;;;-146.25;100.00;52455.38;2070368;28;23644;-77
2023/02/23 01:25:37;;;;;;;69.03;34.70;;;;;;;-146.25;100.00;52433.06;2070819;28;39119;-77
2023/02/23 01:26:43;;;;;;;69.85;34.95;;;;;;;-146.25;100.00;52433.06;2071562;28;27704;-77
2023/02/23 01:27:47;;;;;;;69.10;34.45;;;;;;;-146.25;100.00;52469.56;2071758;28;24007;-78
2023/02/23 01:28:55;;;;;;;75.78;35.88;;;;;;;-146.25;100.00;52487.81;2070260;28;33323;-78
2023/02/23 01:29:58;;;;;;;73.07;35.88;;;;;;;-146.25;100.00;52449.31;2070159;28;20053;-77
2023/02/23 01:31:07;;;;;;;74.72;35.42;;;;;;;-146.25;100.00;52433.06;2063106;28;33364;-77
2023/02/23 01:32:10;;;;;;;68.57;33.65;;;;;;;-146.25;100.00;52453.34;2065959;28;20034;-77
2023/02/23 01:33:14;;;;;;;69.90;34.35;;;;;;;-146.25;100.00;52459.44;2071695;28;20121;-77
2023/02/23 01:34:20;;;;;;;77.75;36.47;;;;;;;-146.25;100.00;52477.69;2072506;28;20161;-77
2023/02/23 01:35:22;;;;;;;75.45;35.75;;;;;;;-146.25;100.00;52447.28;2072853;28;20049;-77
2023/02/23 01:36:27;;;;;;;74.32;36.58;;;;;;;-146.25;100.00;52461.47;2073443;28;20871;-77
2023/02/23 01:37:34;;;;;;;75.55;37.10;;;;;;;-146.25;100.00;52453.34;2072592;28;34515;-77
2023/02/23 01:38:37;;;;;;;77.35;36.40;;;;;;;-146.25;100.00;52451.31;2072721;28;20975;-77
2023/02/23 01:39:39;;;;;;;76.07;36.17;;;;;;;-146.25;100.00;52479.72;2072345;28;33145;-77
2023/02/23 01:40:42;;;;;;;76.80;35.53;;;;;;;-146.25;100.00;52502.03;2072621;28;20120;-77
2023/02/23 01:41:44;;;;;;;79.40;36.67;;;;;;;-146.25;100.00;52447.28;2072201;28;28128;-77
2023/02/23 01:42:46;;;;;;;70.07;32.30;;;;;;;-146.25;100.00;52453.34;2063847;28;20043;-77
2023/02/23 01:44:06;;;;;;;78.50;36.85;;;;;;;-146.25;100.00;52445.25;2064240;28;28259;-77
2023/02/23 01:45:27;;;;;;;72.68;35.30;;;;;;;-146.25;100.00;52463.50;2073074;28;20141;-77
2023/02/23 01:46:37;;;;;;;71.90;34.65;;;;;;;-146.25;100.00;52459.44;2072592;28;20828;-77
2023/02/23 01:47:39;;;;;;;75.10;35.28;;;;;;;-146.25;100.00;52447.28;2072323;28;20081;-77
2023/02/23 01:48:41;;;;;;;74.13;33.55;;;;;;;-146.25;100.00;52463.50;2071993;28;31193;-77
2023/02/23 01:49:44;;;;;;;72.53;34.00;;;;;;;-146.25;100.00;52459.44;2064333;28;20039;-77
2023/02/23 01:51:01;;;;;;;75.47;36.08;;;;;;;-146.25;100.00;52453.34;2064655;28;20043;-77
2023/02/23 01:52:12;;;;;;;78.82;35.97;;;;;;;-146.25;100.00;52429.03;2072593;28;20051;-77
2023/02/23 01:53:14;;;;;;;;;;;;;;;-146.25;100.00;52441.19;2072389;28;31919;-77
2023/02/23 01:54:22;;;;;;;76.60;33.10;;;;;;;-146.25;100.00;52453.34;2071383;28;27212;-75
2023/02/23 01:55:28;;;;;;;76.38;33.90;;;;;;;-146.25;100.00;52461.47;2072312;28;29158;-77
2023/02/23 01:56:42;;;;;;;79.22;35.97;;;;;;;-146.25;100.00;52463.50;2071962;28;25979;-77
2023/02/23 01:57:44;;;;;;;83.38;34.92;;;;;;;-146.25;100.00;52435.09;2064041;28;20065;-77
2023/02/23 01:58:53;;;;;;;76.40;36.08;;;;;;;-146.25;100.00;52453.34;2056164;28;20047;-77
2023/02/23 01:59:55;;;;;;;77.55;34.42;;;;;;;-146.25;100.00;52457.41;2064850;28;28682;-77
2023/02/23 02:01:01;;;;;;;78.35;35.75;;;;;;;-146.25;100.00;52469.56;2072260;28;32899;-77
2023/02/23 02:02:06;;;;;;;76.40;33.67;;;;;;;-146.25;100.00;52447.28;2072784;28;25407;-77
2023/02/23 02:03:14;;;;;;;76.47;35.28;;;;;;;-146.25;100.00;52453.34;2064411;28;20868;-77
2023/02/23 02:04:18;;;;;;;81.63;34.97;;;;;;;-146.25;100.00;52439.16;2065170;28;20035;-78
2023/02/23 02:05:20;;;;;;;77.95;35.03;;;;;;;-146.25;100.00;52441.19;2072671;28;20042;-77
2023/02/23 02:06:28;;;;;;;81.68;36.22;;;;;;;-146.25;100.00;52437.13;2072227;28;20073;-78
2023/02/23 02:07:34;;;;;;;78.32;34.50;;;;;;;-146.25;100.00;52459.44;2072482;28;29151;-77
2023/02/23 02:08:43;;;;;;;78.38;35.05;;;;;;;-146.25;100.00;52461.47;2073017;28;20150;-77
2023/02/23 02:11:24;;;;;;;82.22;36.42;;;;;;;-146.25;100.00;52479.72;2071762;28;31783;-77
2023/02/23 02:12:26;;;;;;;79.63;33.33;;;;;;;-146.25;100.00;52453.34;2072296;28;20173;-78
2023/02/23 02:13:31;;;;;;;78.63;33.72;;;;;;;-146.25;100.00;52447.28;2072011;28;31476;-78
2023/02/23 02:14:35;;;;;;;92.55;35.88;;;;;;;-146.25;100.00;52459.44;2071859;28;29117;-77
2023/02/23 02:16:13;;;;;;;81.97;35.33;;;;;;;-146.25;100.00;52447.28;2072395;28;29020;-78
2023/02/23 02:18:02;;;;;;;79.00;33.47;;;;;;;-146.25;100.00;52441.19;2063919;28;24131;-78
2023/02/23 02:19:32;;;;;;;81.72;33.33;;;;;;;-146.25;100.00;52457.41;2070382;28;35799;-78
2023/02/23 02:21:05;;;;;;;82.60;34.13;;;;;;;-146.25;100.00;52441.19;2067333;28;24673;-78
2023/02/23 02:23:03;;;;;;;75.57;33.25;;;;;;;-146.25;100.00;52453.34;2072551;28;24196;-77
2023/02/23 02:24:51;;;;;;;79.63;34.47;;;;;;;-146.25;100.00;52424.97;2063759;28;26315;-77
2023/02/23 02:26:48;;;;;;;74.90;31.20;;;;;;;-146.25;100.00;52445.25;2040654;28;32610;-76
2023/02/23 02:27:53;;;;;;;80.10;33.22;;;;;;;-146.25;100.00;52457.41;2053952;28;20077;-77
2023/02/23 02:29:23;;;;;;;77.80;34.90;;;;;;;-146.25;100.00;52416.84;2063654;28;31114;-76
2023/02/23 02:30:44;;;;;;;;;;;;;;;-146.25;100.00;52465.53;2073409;28;20060;-78
2023/02/23 02:32:15;;;;;;;84.57;33.25;;;;;;;-146.25;100.00;52457.41;2072032;28;33536;-75
2023/02/23 02:33:42;;;;;;;85.10;33.92;;;;;;;-146.25;100.00;52471.59;2072491;28;20726;-77
2023/02/23 02:35:36;;;;;;;88.35;34.28;;;;;;;-146.25;100.00;52497.97;2072029;28;27013;-78
2023/02/23 02:37:12;;;;;;;85.15;34.08;;;;;;;-146.25;100.00;52461.47;2072143;28;20038;-77
2023/02/23 02:38:41;;;;;;;81.93;31.83;;;;;;;-146.25;100.00;52435.09;2072128;28;36590;-77
2023/02/23 02:40:21;;;;;;;88.05;34.65;;;;;;;-146.25;100.00;52461.47;2071480;28;33890;-76
2023/02/23 02:41:41;;;;;;;80.93;34.03;;;;;;;-146.25;100.00;52451.31;2071372;28;25727;-77
2023/02/23 02:42:57;;;;;;;91.45;36.03;;;;;;;-146.25;100.00;52439.16;2071257;28;26742;-77
2023/02/23 02:45:02;;;;;;;80.97;33.80;;;;;;;-146.25;100.00;52465.53;2072165;28;20108;-76
2023/02/23 02:46:18;;;;;;;76.00;32.20;;;;;;;-146.25;100.00;52473.63;2064295;28;20046;-77
2023/02/23 02:47:33;;;;;;;79.03;33.20;;;;;;;-146.25;100.00;52441.19;2063434;28;27263;-77
2023/02/23 02:49:02;;;;;;;72.72;31.73;;;;;;;-146.25;100.00;52461.47;2066307;28;20125;-77
2023/02/23 02:50:23;;;;;;;83.93;34.92;;;;;;;-146.25;100.00;52495.94;2071814;28;29180;-77
2023/02/23 02:51:47;;;;;;;86.90;34.00;;;;;;;-146.25;100.00;52445.25;2071484;28;27712;-77
2023/02/23 02:53:00;;;;;;;78.07;32.72;;;;;;;-146.25;100.00;52463.50;2071644;28;34561;-77
2023/02/23 02:54:10;;;;;;;80.80;32.35;;;;;;;-146.25;100.00;52435.09;2071933;28;20952;-77
2023/02/23 02:55:23;;;;;;;78.88;33.30;;;;;;;-146.25;100.00;52489.84;2072211;28;20559;-77
2023/02/23 02:56:28;;;;;;;83.43;33.10;;;;;;;-146.25;100.00;52491.88;2063321;28;20992;-76
2023/02/23 02:57:31;;;;;;;75.18;31.35;;;;;;;-146.25;100.00;52445.25;2063806;28;34647;-77
2023/02/23 02:58:37;;;;;;;87.30;34.30;;;;;;;-146.25;100.00;52437.13;2063990;28;20039;-75
2023/02/23 04:17:55;;;;;;;96.35;36.17;;;;;;;-146.25;100.00;52441.19;2070985;28;37852;-76
2023/02/23 04:18:58;;;;;;;85.47;33.85;;;;;;;-146.25;100.00;52429.03;2070896;28;35349;-76
2023/02/23 04:20:00;;;;;;;92.28;35.47;;;;;;;-146.25;100.00;52493.91;2071710;28;20038;-76
2023/02/23 04:21:03;;;;;;;100.93;38.05;;;;;;;-146.25;100.00;52465.53;2070763;28;32584;-76
2023/02/23 04:22:05;;;;;;;93.13;37.97;;;;;;;-146.25;100.00;52449.31;2071385;28;29561;-76
2023/02/23 04:23:07;;;;;;;111.03;39.10;;;;;;;-146.25;100.00;52467.56;2072256;28;33434;-76
2023/02/23 04:24:09;;;;;;;99.82;38.65;;;;;;;-146.25;100.00;52473.63;2071914;28;30913;-76
2023/02/23 04:25:14;;;;;;;109.30;38.70;;;;;;;-146.25;100.00;52431.06;2070997;28;33351;-76
2023/02/23 04:26:18;;;;;;;95.47;37.65;;;;;;;-146.25;100.00;52451.31;2072177;28;20069;-76
2023/02/23 04:27:19;;;;;;;102.43;38.95;;;;;;;-146.25;100.00;52424.97;2071142;28;36104;-74
2023/02/23 04:28:23;;;;;;;108.47;37.63;;;;;;;-146.25;100.00;52443.22;2071216;28;36200;-76
2023/02/23 04:29:27;;;;;;;101.15;38.65;;;;;;;-146.25;100.00;52455.38;2071364;28;32232;-76
2023/02/23 04:30:29;;;;;;;101.20;37.97;;;;;;;-146.25;100.00;52437.13;2071484;28;37393;-76
2023/02/23 04:31:31;;;;;;;99.03;39.38;;;;;;;-146.25;100.00;52463.50;2072063;28;20069;-76
2023/02/23 04:32:33;;;;;;;104.45;39.47;;;;;;;-146.25;100.00;52471.59;2071396;28;36010;-76
2023/02/23 04:33:35;;;;;;;97.78;38.03;;;;;;;-146.25;100.00;52475.66;2072406;28;20035;-76
2023/02/23 04:34:36;;;;;;;99.00;36.72;;;;;;;-146.25;100.00;52461.47;2071564;28;36558;-76
2023/02/23 04:35:38;;;;;;;101.38;37.58;;;;;;;-146.25;100.00;52465.53;2071849;28;31361;-76
2023/02/23 04:36:41;;;;;;;99.85;38.17;;;;;;;-146.25;100.00;52453.34;2071415;28;33548;-76
2023/02/23 04:37:43;;;;;;;104.65;37.30;;;;;;;-146.25;100.00;52433.06;2071468;28;36455;-77
2023/02/23 04:38:44;;;;;;;102.35;39.35;;;;;;;-146.25;100.00;52451.31;2071748;28;35580;-76
2023/02/23 04:39:49;;;;;;;94.72;37.83;;;;;;;-146.25;100.00;52477.69;2071609;28;33564;-76
2023/02/23 04:40:51;;;;;;;103.18;38.33;;;;;;;-146.25;100.00;52453.34;2071892;28;20054;-76
2023/02/23 04:41:53;;;;;;;103.75;40.60;;;;;;;-146.25;100.00;52424.97;2071492;28;36122;-76
2023/02/23 04:42:55;;;;;;;100.22;40.28;;;;;;;-146.25;100.00;52461.47;2071174;28;35275;-76
2023/02/23 04:43:57;;;;;;;104.07;40.42;;;;;;;-146.25;100.00;52457.41;2071130;28;35101;-77
2023/02/23 04:45:01;;;;;;;101.43;40.15;;;;;;;-146.25;100.00;52433.06;2071943;28;37144;-76
2023/02/23 04:46:03;;;;;;;101.60;38.45;;;;;;;-146.25;100.00;52441.19;2071366;28;35629;-76
2023/02/23 04:47:07;;;;;;;92.25;36.45;;;;;;;-146.25;100.00;52439.16;2071599;28;31946;-76
2023/02/23 04:48:09;;;;;;;97.10;38.78;;;;;;;-146.25;100.00;52451.31;2071257;28;36966;-77
2023/02/23 04:49:11;;;;;;;99.78;39.35;;;;;;;-146.25;100.00;52465.53;2071517;28;33585;-76
2023/02/23 04:50:13;;;;;;;104.70;40.08;;;;;;;-146.25;100.00;52459.44;2071141;28;35236;-76
2023/02/23 04:51:14;;;;;;;105.85;40.22;;;;;;;-146.25;100.00;52461.47;2071531;28;31697;-76
2023/02/23 04:52:17;;;;;;;95.13;37.35;;;;;;;-146.25;100.00;52453.34;2071347;28;25798;-76
2023/02/23 04:53:18;;;;;;;101.65;39.60;;;;;;;-146.25;100.00;52469.56;2071509;28;31865;-76
2023/02/23 04:54:20;;;;;;;116.05;40.05;;;;;;;-146.25;100.00;52445.25;2071194;28;33530;-77
2023/02/23 04:55:24;;;;;;;109.03;40.42;;;;;;;-146.25;100.00;52463.50;2062704;28;34916;-76
2023/02/23 04:56:25;;;;;;;102.75;39.72;;;;;;;-146.25;100.00;52443.22;2062975;28;35739;-76
2023/02/23 04:57:29;;;;;;;104.47;38.75;;;;;;;-146.25;100.00;52477.69;2071277;28;35390;-75
2023/02/23 04:58:31;;;;;;;107.15;41.22;;;;;;;-146.25;100.00;52451.31;2071150;28;29093;-75
2023/02/23 04:59:33;;;;;;;108.85;41.80;;;;;;;-146.25;100.00;52473.63;2071688;28;38338;-76
2023/02/23 05:00:38;;;;;;;104.35;39.38;;;;;;;-146.25;100.00;52463.50;2071482;28;35827;-76
2023/02/23 05:01:39;;;;;;;106.38;41.65;;;;;;;-146.25;100.00;52481.75;2072027;28;20038;-76
2023/02/23 05:02:41;;;;;;;106.30;41.10;;;;;;;-146.25;100.00;52459.44;2070891;28;37935;-76
2023/02/23 05:03:43;;;;;;;101.45;39.83;;;;;;;-146.25;100.00;52469.56;2071327;28;34981;-77
2023/02/23 05:04:45;;;;;;;107.32;39.30;;;;;;;-146.25;100.00;52477.69;2071371;28;36567;-77
2023/02/23 05:05:46;;;;;;;100.55;39.25;;;;;;;-146.25;100.00;52453.34;2072940;28;37569;-76
2023/02/23 05:06:48;;;;;;;102.55;38.40;;;;;;;-146.25;100.00;52489.84;2074158;28;33131;-77
2023/02/23 05:07:50;;;;;;;101.13;39.35;;;;;;;-146.25;100.00;52433.06;2074633;28;33697;-76
2023/02/23 05:08:52;;;;;;;108.78;40.55;;;;;;;-146.25;100.00;52477.69;2074031;28;36806;-76
2023/02/23 05:09:54;;;;;;;98.95;38.75;;;;;;;-146.25;100.00;52463.50;2074224;28;34474;-77
2023/02/23 05:10:55;;;;;;;114.43;42.42;;;;;;;-146.25;100.00;52453.34;2073685;28;34985;-75
2023/02/23 05:11:57;;;;;;;103.95;38.97;;;;;;;-146.25;100.00;52465.53;2073836;28;33902;-77
2023/02/23 05:13:00;;;;;;;95.65;38.30;;;;;;;-146.25;100.00;52481.75;2073215;28;35836;-77
2023/02/23 05:14:01;;;;;;;113.13;40.85;;;;;;;-146.25;100.00;52451.31;2073309;28;36608;-74
2023/02/23 05:15:04;;;;;;;104.50;40.72;;;;;;;-146.25;100.00;52439.16;2074106;28;37091;-75
2023/02/23 05:16:06;;;;;;;104.25;40.22;;;;;;;-146.25;100.00;52471.59;2074254;28;34099;-74
2023/02/23 05:17:08;;;;;;;94.55;37.88;;;;;;;-146.25;100.00;52477.69;2074124;28;20899;-77
2023/02/23 05:18:10;;;;;;;100.07;38.83;;;;;;;-146.25;100.00;52457.41;2073546;28;28409;-76
2023/02/23 05:19:12;;;;;;;97.05;37.38;;;;;;;-146.25;100.00;52437.13;2074080;28;33170;-76
2023/02/23 05:20:14;;;;;;;114.80;42.15;;;;;;;-146.25;100.00;52445.25;2073990;28;38814;-77
2023/02/23 05:21:16;;;;;;;103.28;38.63;;;;;;;-146.25;100.00;52463.50;2074660;28;20030;-75
2023/02/23 05:22:17;;;;;;;102.90;37.63;;;;;;;-146.25;100.00;52445.25;2073992;28;36084;-75
2023/02/23 05:23:20;;;;;;;105.38;38.95;;;;;;;-146.25;100.00;52437.13;2074071;28;20919;-75
2023/02/23 05:24:22;;;;;;;107.50;38.92;;;;;;;-146.25;100.00;52475.66;2073961;28;20141;-75
2023/02/23 05:25:24;;;;;;;96.60;38.83;;;;;;;-146.25;100.00;52437.13;2073344;28;40397;-75
2023/02/23 05:26:26;;;;;;;108.68;38.97;;;;;;;-146.25;100.00;52493.91;2073606;28;30752;-76
2023/02/23 05:27:31;;;;;;;110.53;40.50;;;;;;;-146.25;100.00;52465.53;2073358;28;35158;-75
2023/02/23 05:28:35;;;;;;;94.15;36.45;;;;;;;-146.25;100.00;52459.44;2073447;28;38930;-74
2023/02/23 05:29:38;;;;;;;115.38;42.78;;;;;;;-146.25;100.00;52445.25;2075162;28;20249;-77
2023/02/23 05:30:39;;;;;;;115.30;41.22;;;;;;;-146.25;100.00;52461.47;2073815;28;34077;-75
2023/02/23 05:31:41;;;;;;;101.65;38.13;;;;;;;-146.25;100.00;52457.41;2074051;28;37311;-75
2023/02/23 05:32:43;;;;;;;100.07;40.15;;;;;;;-146.25;100.00;52453.34;2073974;28;32256;-75
2023/02/23 05:33:45;;;;;;;101.28;38.65;;;;;;;-146.25;100.00;52441.19;2073789;28;35357;-76
2023/02/23 05:34:47;;;;;;;107.63;40.60;;;;;;;-146.25;100.00;52449.31;2073533;28;35434;-75
2023/02/23 05:35:48;;;;;;;113.47;41.38;;;;;;;-146.25;100.00;52483.78;2073964;28;35781;-74
2023/02/23 05:36:53;;;;;;;104.55;38.92;;;;;;;-146.25;100.00;52465.53;2073872;28;32577;-74
2023/02/23 05:37:55;;;;;;;113.40;41.47;;;;;;;-146.25;100.00;52487.81;2073807;28;36444;-77
2023/02/23 05:38:57;;;;;;;101.28;37.85;;;;;;;-146.25;100.00;52431.06;2074480;28;20074;-75
2023/02/23 05:39:59;;;;;;;102.90;37.50;;;;;;;-146.25;100.00;52455.38;2073428;28;36104;-75
2023/02/23 05:41:08;;;;;;;104.65;38.45;;;;;;;-146.25;100.00;52431.06;2073030;28;32485;-77
2023/02/23 05:42:10;;;;;;;105.65;40.65;;;;;;;-146.25;100.00;52461.47;2074089;28;32801;-76
2023/02/23 05:43:11;;;;;;;107.95;41.80;;;;;;;-146.25;100.00;52487.81;2073103;28;37603;-76
2023/02/23 05:44:13;;;;;;;112.88;41.60;;;;;;;-146.25;100.00;52414.84;2074640;28;20034;-77
2023/02/23 05:45:15;;;;;;;111.53;41.08;;;;;;;-146.25;100.00;52489.84;2074579;28;20035;-76
2023/02/23 05:46:22;;;;;;;113.25;41.08;;;;;;;-146.25;100.00;52441.19;2073882;28;35552;-75
2023/02/23 05:47:24;;;;;;;102.50;38.50;;;;;;;-146.25;100.00;52465.53;2074129;28;36144;-76
2023/02/23 05:48:27;;;;;;;107.28;40.85;;;;;;;-146.25;100.00;52510.13;2074395;28;20042;-75
2023/02/23 05:49:29;;;;;;;100.43;39.58;;;;;;;-146.25;100.00;52459.44;2074035;28;33722;-77
2023/02/23 05:50:31;;;;;;;108.45;40.22;;;;;;;-146.25;100.00;52485.81;2073628;28;33884;-77
2023/02/23 05:51:34;;;;;;;104.18;39.75;;;;;;;-146.25;100.00;52451.31;2074748;28;20046;-77
2023/02/23 05:52:40;;;;;;;101.65;39.25;;;;;;;-146.25;100.00;52447.28;2074055;28;20046;-77
2023/02/23 05:53:43;;;;;;;103.30;40.40;;;;;;;-146.25;100.00;52453.34;2074565;28;20836;-77
2023/02/23 05:54:46;;;;;;;115.85;40.53;;;;;;;-146.25;100.00;52433.06;2073455;28;37743;-77
2023/02/23 05:55:48;;;;;;;104.53;40.47;;;;;;;-146.25;100.00;52455.38;2074084;28;34417;-76
2023/02/23 05:56:52;;;;;;;113.32;42.53;;;;;;;-146.25;100.00;52469.56;2073643;28;31286;-77
2023/02/23 05:57:54;;;;;;;103.85;39.75;;;;;;;-146.25;100.00;52433.06;2073618;28;38421;-77
2023/02/23 05:58:57;;;;;;;109.88;41.60;;;;;;;-146.25;100.00;52447.28;2073742;28;35080;-77
2023/02/23 05:59:59;;;;;;;116.90;41.53;;;;;;;-146.25;100.00;52429.03;2073894;28;34092;-75
2023/02/23 06:01:01;;;;;;;114.85;41.25;;;;;;;-146.25;100.00;52424.97;2073733;28;36533;-75
2023/02/23 06:02:05;;;;;;;103.85;39.67;;;;;;;-146.25;100.00;52424.97;2074231;28;20132;-77
2023/02/23 06:03:07;;;;;;;104.32;39.05;;;;;;;-146.25;100.00;52455.38;2073494;28;35310;-75
2023/02/23 06:04:11;;;;;;;110.22;40.55;;;;;;;-146.25;100.00;52463.50;2073855;28;35102;-75
2023/02/23 06:05:14;;;;;;;109.20;40.42;;;;;;;-146.25;100.00;52483.78;2073576;28;32862;-77
2023/02/23 06:06:17;;;;;;;106.00;40.85;;;;;;;-146.25;100.00;52455.38;2074155;28;32409;-77
2023/02/23 06:07:19;;;;;;;108.53;41.15;;;;;;;-146.25;100.00;52447.28;2072732;28;36691;-77
2023/02/23 06:08:23;;;;;;;109.63;41.28;;;;;;;-146.25;100.00;52451.31;2073762;28;20034;-77
2023/02/23 06:09:27;;;;;;;113.63;41.50;;;;;;;-146.25;100.00;52433.06;2073525;28;37664;-77
2023/02/23 06:10:29;;;;;;;107.43;40.60;;;;;;;-146.25;100.00;52473.63;2073853;28;35222;-76
2023/02/23 06:11:31;;;;;;;109.38;40.13;;;;;;;-146.25;100.00;52465.53;2073549;28;36361;-75
2023/02/23 06:12:32;;;;;;;108.53;40.13;;;;;;;-146.25;100.00;52455.38;2073078;28;36294;-76
2023/02/23 06:13:34;;;;;;;114.63;42.03;;;;;;;-146.25;100.00;52437.13;2073602;28;35727;-75